EGHH

Bournemouth Airport

Bournemouth, United Kingdom
METAR EGHH 231350Z 09012KT 020V140 CAVOK 06/M03 Q1019
Observed Flight Rules
Feb-23 @ 13:50 UTC (49 minutes ago) Visual Flight Rules
Wind Visibility Clouds
90° at 12 knots 10,000+ meters
  • Clear skies
Temperatures Readings
Current 6°C / 43°F
Dewpoint -3°C / 27°F
Humidity 53%
Altimeter 30.09" Hg
Pressure 1019 hPa
Elevation 11
METAR EGHH 231350Z 09012KT 020V140 CAVOK 06/M03 Q1019
Observed Flight Rules
Feb-23 @ 13:50 UTC
(49 minutes ago)
VFR
Wind Visibility
90° at 12 knots 10,000+ meters
Clouds
  • Clear skies
Temperature Dewpoint
6°C / 43°F -3°C / 27°F
Humidity Altimeter Pressure
53% 30.09" Hg 1019 hPa